Almelund, MN

8:05 AM CST on January 30, 2015 (GMT -0600)
APRSWXNET Almelund MN US | Change Station
CLOSE
Current Station
Personal Weather Station
Location: Almelund, MN
Elevation: 884 ft
Nearby Weather Stations

Elev 884 ft 45.55 °N, 92.80 °W | Updated 35 minutes ago

Partly Cloudy
Partly Cloudy
4 °F
Feels Like 4 °F
N
0
Wind Variable Wind from North
Gusts 0.0 mph

Today
High -- | Low -- °F
--% Chance of Precip.
Yesterday
High -- | Low -- °F
Precip. -- in
7:34 AM 5:14 PM
Waxing Gibbous, 83% visible
Pressure 30.55 in
Visibility 10.0 miles
Clouds Mostly Cloudy 10000 ft
Windchill 4 °F
Dew Point -1 °F
Humidity 79%
Rainfall 0.00 in
Snow Depth Not available.
UV 0 out of 12
Pollen .10 out of 12
Air Quality Not available.
Flu Activity Not available.
METAR KOEO 301355Z AUTO 00000KT 10SM BKN100 M14/M17 A3055 RMK AO2 T11371166

More Conditions Fewer Conditions

Pressure 30.55 in
Visibility 10.0 miles
Clouds Mostly Cloudy 10000 ft
Windchill 4 °F
Dew Point -1 °F
Humidity 79%
Rainfall 0.00 in
Snow Depth Not available.
UV 0 out of 12
Pollen .10 out of 12
Air Quality Not available.
Flu Activity Not available.
METAR KOEO 301355Z AUTO 00000KT 10SM BKN100 M14/M17 A3055 RMK AO2 T11371166

More Conditions Fewer Conditions

10-Day Weather Forecast

Almanac

Astronomy

Jan. 30, 2015 Rise Set
Actual Time
Civil Twilight
Nautical Twilight
Astronomical Twilight
Moon
Length of Visible Light
Length of Day
Tomorrow will be .
, % of the Moon is Illuminated

Today's Extremes

State Highs State Lows

Community

WunderPhotos

Upload Photos

1,791,761 photos uploaded!

WunderBlogs® & News

Nearby

Air Quality

  Air Quality AQ Index Pollutant
Not available.

Snow Depth

Station Depth Elevation

Earthquake Activity

City Distance Mag. Time & Date
Minimum magnitude displayed is 2.5.

Coastal Water Temperatures

Place Temperature

Nearby Weather Stations